Time;durP1;ratioP1;P1;durP2;ratioP2;P2;SDS_P1;SDS_P2;PMS_P1;PMS_P2;Temp;Humidity;BMP_temperature;BMP_pressure;BME280_temperature;BME280_humidity;BME280_pressure;Samples;Min_cycle;Max_cycle;Signal;HPM_P1;HPM_P2
2022/06/05 00:01:49;;;;;;;;;13.25;11.00;;;;;15.01;67.42;101929.66;5039601;28;9752;-66
2022/06/05 00:04:41;;;;;;;;;10.50;9.75;;;;;15.00;67.40;101916.31;5045242;28;9664;-65
2022/06/05 00:07:16;;;;;;;;;8.50;8.00;;;;;14.98;67.59;101910.25;5032854;28;9606;-65
2022/06/05 00:10:18;;;;;;;;;9.50;9.00;;;;;14.85;67.72;101910.97;5040814;28;9684;-66
2022/06/05 00:12:44;;;;;;;;;10.75;9.75;;;;;14.79;68.26;101909.06;5029963;28;9682;-65
2022/06/05 00:15:11;;;;;;;;;10.75;10.75;;;;;14.76;68.07;101904.03;5040416;28;9682;-65
2022/06/05 00:17:38;;;;;;;;;11.75;11.75;;;;;14.79;68.53;101893.63;5049981;28;9577;-66
2022/06/05 00:20:06;;;;;;;;;11.75;11.50;;;;;14.85;67.98;101905.56;5041285;28;10418;-65
2022/06/05 00:22:33;;;;;;;;;12.25;11.75;;;;;14.87;68.11;101903.50;5032636;28;9782;-66
2022/06/05 00:25:00;;;;;;;;;15.50;12.00;;;;;14.87;68.13;101897.22;5043012;28;9693;-64
2022/06/05 00:27:48;;;;;;;;;10.75;10.75;;;;;14.79;67.98;101909.91;5052022;28;9647;-66
2022/06/05 00:30:29;;;;;;;;;12.00;7.25;;;;;14.73;68.45;101896.28;5039795;28;9759;-65
2022/06/05 00:33:23;;;;;;;;;10.25;10.25;;;;;14.73;68.61;101897.13;5032191;28;9548;-63
2022/06/05 00:36:09;;;;;;;;;15.75;12.50;;;;;14.72;68.60;101898.16;5033603;28;9509;-65
2022/06/05 00:38:45;;;;;;;;;10.25;10.25;;;;;14.64;68.61;101882.03;5032245;28;9609;-63
2022/06/05 00:41:33;;;;;;;;;15.00;11.50;;;;;14.56;69.49;101882.19;5025702;28;10443;-65
2022/06/05 00:44:04;;;;;;;;;12.50;11.50;;;;;14.58;69.18;101875.53;5034610;28;9742;-66
2022/06/05 00:46:33;;;;;;;;;12.25;10.00;;;;;14.58;69.06;101882.81;5051867;28;9796;-66
2022/06/05 00:49:00;;;;;;;;;14.75;12.25;;;;;14.56;69.20;101879.47;5049251;28;9673;-66
2022/06/05 00:51:27;;;;;;;;;14.25;11.75;;;;;14.56;69.13;101879.47;5032247;28;9762;-64
2022/06/05 00:53:54;;;;;;;;;14.00;12.50;;;;;14.56;69.31;101885.72;5033449;28;9676;-65
2022/06/05 00:56:21;;;;;;;;;17.00;14.00;;;;;14.51;69.33;101876.50;5050188;28;9667;-66
2022/06/05 00:58:47;;;;;;;;;15.00;14.00;;;;;14.45;69.94;101871.84;5048913;28;9903;-67
2022/06/05 01:01:14;;;;;;;;;13.00;11.25;;;;;14.44;70.07;101872.88;5051189;28;9931;-64
2022/06/05 01:03:40;;;;;;;;;12.75;11.75;;;;;14.44;70.45;101871.00;5045298;28;9699;-66
2022/06/05 01:06:08;;;;;;;;;15.75;13.00;;;;;14.45;69.99;101855.56;5033601;28;10364;-64
2022/06/05 01:08:34;;;;;;;;;12.00;11.25;;;;;14.42;70.13;101843.28;5051151;28;9670;-64
2022/06/05 01:11:13;;;;;;;;;13.00;13.00;;;;;14.45;70.26;101844.75;5049968;28;9661;-64
2022/06/05 01:13:50;;;;;;;;;11.50;10.50;;;;;14.44;69.69;101834.94;5038672;28;9834;-65
2022/06/05 01:16:35;;;;;;;;;12.25;12.00;;;;;14.43;70.04;101835.97;5028522;28;9665;-64
2022/06/05 01:19:35;;;;;;;;;16.00;13.25;;;;;14.42;69.59;101835.16;5033884;28;10495;-64
2022/06/05 01:22:30;;;;;;;;;16.25;13.50;;;;;14.29;69.62;101830.44;5051129;28;9672;-64
2022/06/05 01:25:22;;;;;;;;;14.25;13.25;;;;;14.25;69.54;101844.56;5041021;28;9749;-64
2022/06/05 01:27:55;;;;;;;;;14.50;11.00;;;;;14.29;69.74;101830.44;5031282;28;9750;-65
2022/06/05 01:30:24;;;;;;;;;14.75;12.25;;;;;14.37;69.61;101836.75;5043791;28;9880;-64
2022/06/05 01:33:02;;;;;;;;;12.50;11.00;;;;;14.43;69.19;101831.41;5050645;28;9753;-66
2022/06/05 01:35:44;;;;;;;;;14.75;13.00;;;;;14.45;68.75;101833.91;5041234;28;9703;-65
2022/06/05 01:38:16;;;;;;;;;14.25;10.50;;;;;14.43;68.31;101833.28;5050465;28;10439;-65
2022/06/05 01:40:46;;;;;;;;;12.25;12.25;;;;;14.43;68.21;101828.69;5034735;28;9783;-65
2022/06/05 01:43:17;;;;;;;;;17.00;13.50;;;;;14.47;67.94;101827.25;5037780;28;9705;-65
2022/06/05 01:46:04;;;;;;;;;15.50;13.50;;;;;14.44;68.24;101832.22;5036110;28;9846;-65
2022/06/05 01:48:38;;;;;;;;;12.50;9.00;;;;;14.43;68.11;101830.56;5050122;28;9875;-64
2022/06/05 01:51:13;;;;;;;;;15.00;12.25;;;;;14.41;68.22;101832.63;5031504;28;10364;-65
2022/06/05 01:53:43;;;;;;;;;15.25;14.75;;;;;14.37;68.00;101836.75;5030939;28;9595;-64
2022/06/05 01:56:21;;;;;;;;;12.25;12.25;;;;;14.37;68.08;101844.88;5024617;28;9762;-64
2022/06/05 01:58:56;;;;;;;;;11.75;11.25;;;;;14.34;68.44;101838.84;5046236;28;9853;-66
2022/06/05 02:01:27;;;;;;;;;10.25;9.75;;;;;14.38;68.39;101830.28;5036151;28;9936;-64
2022/06/05 02:04:24;;;;;;;;;14.00;14.00;;;;;14.31;68.27;101822.13;5031923;28;9700;-66
2022/06/05 02:07:01;;;;;;;;;13.75;11.00;;;;;14.23;68.59;101819.56;5048869;28;9757;-64
2022/06/05 02:09:39;;;;;;;;;11.75;10.75;;;;;14.20;68.86;101811.81;5044084;28;9654;-66
2022/06/05 02:12:08;;;;;;;;;16.00;16.00;;;;;14.16;68.75;101805.94;5030894;28;9845;-65
2022/06/05 02:14:35;;;;;;;;;12.25;12.25;;;;;14.23;69.01;101809.56;5037546;28;9907;-65
2022/06/05 02:17:03;;;;;;;;;13.50;13.25;;;;;14.22;68.36;101807.88;5049846;28;9745;-65
2022/06/05 02:19:30;;;;;;;;;14.25;11.00;;;;;14.26;68.17;101798.34;5043642;28;9747;-65
2022/06/05 02:22:02;;;;;;;;;22.75;18.00;;;;;14.17;68.04;101798.66;5030879;28;9826;-65
2022/06/05 02:24:29;;;;;;;;;12.00;12.00;;;;;14.16;68.42;101797.81;5041928;28;9943;-65
2022/06/05 02:26:59;;;;;;;;;11.25;11.25;;;;;14.21;68.54;101795.34;5049171;28;9823;-65
2022/06/05 02:29:26;;;;;;;;;14.00;13.00;;;;;14.26;67.62;101801.06;5048706;28;9819;-64
2022/06/05 02:32:05;;;;;;;;;12.50;11.50;;;;;14.22;67.53;101794.34;5049733;28;9763;-65
2022/06/05 02:34:56;;;;;;;;;17.50;13.00;;;;;14.12;68.12;101788.41;5046967;28;10586;-65
2022/06/05 02:37:52;;;;;;;;;15.50;12.75;;;;;14.07;68.20;101786.28;5049209;28;10023;-65
2022/06/05 02:40:45;;;;;;;;;15.00;14.50;;;;;14.09;68.34;101777.97;5028091;28;10009;-65
2022/06/05 02:43:42;;;;;;;;;14.50;12.50;;;;;14.10;68.00;101772.38;5030500;28;9758;-66
2022/06/05 02:46:15;;;;;;;;;16.00;12.00;;;;;14.11;68.48;101767.78;5049570;28;9758;-65
2022/06/05 02:48:53;;;;;;;;;10.25;9.50;;;;;14.14;68.10;101772.81;5045957;28;9847;-65
2022/06/05 02:51:27;;;;;;;;;17.00;13.75;;;;;14.09;67.93;101764.44;5027345;28;9845;-65
2022/06/05 02:53:56;;;;;;;;;18.00;14.50;;;;;14.01;67.87;101742.91;5031411;28;9914;-65
2022/06/05 02:56:26;;;;;;;;;13.25;10.50;;;;;13.96;68.60;101723.72;5049395;28;9844;-66
2022/06/05 02:58:54;;;;;;;;;17.50;16.25;;;;;13.99;68.39;101723.31;5047821;28;9978;-65
2022/06/05 03:04:07;;;;;;;;;12.50;12.00;;;;;14.04;68.56;101734.41;5027115;28;10472;-63
2022/06/05 03:06:37;;;;;;;;;17.25;15.25;;;;;13.97;67.90;101728.09;5049175;28;9861;-65
2022/06/05 03:09:04;;;;;;;;;15.00;13.00;;;;;13.97;68.72;101733.50;5046445;28;9942;-65
2022/06/05 03:11:38;;;;;;;;;12.50;10.75;;;;;14.01;68.25;101732.06;5030123;28;9914;-65
2022/06/05 03:14:05;;;;;;;;;14.00;12.25;;;;;14.02;68.44;101721.06;5032792;28;9966;-64
2022/06/05 03:16:33;;;;;;;;;15.75;12.00;;;;;14.08;67.86;101711.31;5049169;28;10056;-66
2022/06/05 03:19:00;;;;;;;;;13.50;11.00;;;;;14.09;68.13;101716.53;5023865;28;9841;-65
2022/06/05 03:21:30;;;;;;;;;11.00;10.25;;;;;14.13;68.10;101710.72;5034667;28;9670;-65
2022/06/05 03:23:57;;;;;;;;;14.25;11.50;;;;;14.14;67.97;101706.97;5031613;28;9920;-65
2022/06/05 03:26:23;;;;;;;;;11.00;11.00;;;;;14.13;67.69;101710.72;5049247;28;9902;-65
2022/06/05 03:28:50;;;;;;;;;14.75;13.00;;;;;14.09;67.68;101702.97;5047694;28;9920;-65
2022/06/05 03:31:16;;;;;;;;;17.00;15.00;;;;;14.06;68.20;101700.69;5029883;28;9859;-65
2022/06/05 03:33:43;;;;;;;;;14.75;14.25;;;;;13.98;68.47;101690.00;5030145;28;9958;-66
2022/06/05 03:36:13;;;;;;;;;14.75;13.50;;;;;13.96;68.56;101692.06;5039131;28;9774;-65
2022/06/05 03:38:41;;;;;;;;;13.75;12.00;;;;;14.02;68.90;101682.34;5031081;28;9868;-66
2022/06/05 03:41:08;;;;;;;;;15.75;14.50;;;;;13.97;68.46;101673.94;5052751;28;10633;-66
2022/06/05 03:43:37;;;;;;;;;16.50;11.75;;;;;13.94;68.73;101677.91;5025186;28;10083;-66
2022/06/05 03:46:10;;;;;;;;;14.75;11.75;;;;;13.93;68.68;101687.03;5052064;28;9902;-66
2022/06/05 03:48:37;;;;;;;;;11.25;10.75;;;;;13.96;68.67;101680.41;5042143;28;9778;-66
2022/06/05 03:51:17;;;;;;;;;11.00;11.00;;;;;13.98;68.46;101676.47;5061356;28;9846;-66
2022/06/05 03:53:44;;;;;;;;;9.75;8.75;;;;;14.01;68.58;101686.06;5033473;28;9844;-66
2022/06/05 03:56:15;;;;;;;;;12.00;10.50;;;;;13.96;68.63;101683.94;5037688;28;10043;-65
2022/06/05 03:58:41;;;;;;;;;16.25;15.00;;;;;13.93;68.67;101691.63;5033034;28;9935;-66
2022/06/05 04:01:09;;;;;;;;;16.50;12.00;;;;;13.90;68.57;101694.72;5052305;28;9809;-66
2022/06/05 04:03:36;;;;;;;;;11.75;11.50;;;;;13.92;69.38;101696.19;5052162;28;9900;-66
2022/06/05 04:06:09;;;;;;;;;12.75;11.00;;;;;13.92;68.68;101684.53;5038691;28;9848;-66
2022/06/05 04:08:36;;;;;;;;;15.25;13.00;;;;;13.91;69.00;101677.44;5052053;28;9898;-66
2022/06/05 04:11:07;;;;;;;;;21.25;13.75;;;;;13.91;68.95;101672.88;5033684;28;10019;-66
2022/06/05 04:13:34;;;;;;;;;14.25;14.25;;;;;13.84;68.98;101670.09;5033245;28;9955;-66
2022/06/05 04:16:01;;;;;;;;;17.50;13.25;;;;;13.80;69.39;101663.41;5051227;28;10331;-66
2022/06/05 04:18:28;;;;;;;;;16.00;16.00;;;;;13.75;69.15;101655.03;5052429;28;9845;-66
2022/06/05 04:20:54;;;;;;;;;15.00;12.50;;;;;13.72;69.79;101662.72;5034596;28;9913;-65
2022/06/05 04:23:21;;;;;;;;;15.50;15.50;;;;;13.66;69.60;101653.50;5037716;28;9923;-66
2022/06/05 04:25:47;;;;;;;;;19.50;15.25;;;;;13.63;70.02;101662.00;5036653;28;10483;-66
2022/06/05 04:28:13;;;;;;;;;15.50;15.25;;;;;13.69;69.80;101663.09;5051776;28;10057;-65
2022/06/05 04:30:40;;;;;;;;;11.50;10.00;;;;;13.75;69.78;101665.88;5035917;28;10201;-66
2022/06/05 04:33:07;;;;;;;;;15.00;14.00;;;;;13.76;69.50;101661.28;5032699;28;9950;-66
2022/06/05 04:35:34;;;;;;;;;17.75;15.25;;;;;13.75;69.08;101648.78;5047433;28;10166;-66
2022/06/05 04:38:00;;;;;;;;;13.75;13.00;;;;;13.71;69.72;101653.75;5033674;28;10017;-66
2022/06/05 04:40:27;;;;;;;;;12.00;12.00;;;;;13.69;69.95;101649.56;5038079;28;10101;-66
2022/06/05 04:42:53;;;;;;;;;15.00;13.75;;;;;13.73;69.82;101646.31;5049165;28;10019;-65
2022/06/05 04:45:20;;;;;;;;;18.50;16.50;;;;;13.74;69.53;101657.97;5038815;28;9917;-65
2022/06/05 04:47:46;;;;;;;;;17.00;13.75;;;;;13.73;69.27;101646.31;5032297;28;10095;-66
2022/06/05 04:50:13;;;;;;;;;16.25;16.00;;;;;13.74;69.43;101652.53;5039055;28;10166;-66
2022/06/05 04:52:39;;;;;;;;;15.75;13.25;;;;;13.74;69.61;101653.38;5032360;28;9906;-66
2022/06/05 04:55:07;;;;;;;;;14.50;13.50;;;;;13.81;69.46;101656.97;5033359;28;10011;-66
2022/06/05 04:57:34;;;;;;;;;13.50;13.50;;;;;13.78;69.23;101660.06;5044727;28;10003;-66
2022/06/05 05:00:02;;;;;;;;;20.25;18.00;;;;;13.78;69.64;101657.38;5049704;28;10083;-65
2022/06/05 05:02:29;;;;;;;;;18.75;16.00;;;;;13.79;70.09;101652.78;5051431;28;10087;-66
2022/06/05 05:04:57;;;;;;;;;16.50;15.00;;;;;13.81;69.89;101651.56;5050303;28;10049;-66
2022/06/05 05:07:23;;;;;;;;;15.75;15.50;;;;;13.81;69.65;101646.16;5048254;28;9906;-66
2022/06/05 05:09:50;;;;;;;;;17.50;17.25;;;;;13.80;69.79;101649.88;5041487;28;10016;-66
2022/06/05 05:12:18;;;;;;;;;14.75;13.50;;;;;13.81;69.91;101635.34;5049839;28;10088;-66
2022/06/05 05:14:45;;;;;;;;;15.50;15.00;;;;;13.82;69.96;101634.28;5041783;28;9990;-66
2022/06/05 05:17:11;;;;;;;;;16.75;16.00;;;;;13.85;69.72;101636.63;5030562;28;10683;-66
2022/06/05 05:19:38;;;;;;;;;17.00;14.75;;;;;13.91;69.72;101631.44;5039110;28;9905;-66
2022/06/05 05:22:04;;;;;;;;;14.25;14.25;;;;;13.90;69.71;101621.66;5052137;28;10578;-66
2022/06/05 05:24:31;;;;;;;;;18.25;14.25;;;;;13.91;70.02;101631.44;5045119;28;9924;-66
2022/06/05 05:26:57;;;;;;;;;10.50;10.25;;;;;13.90;69.48;101625.19;5032517;28;10447;-66
2022/06/05 05:29:24;;;;;;;;;17.75;14.75;;;;;13.96;69.89;101628.97;5042647;28;9901;-66
2022/06/05 05:31:52;;;;;;;;;15.50;13.50;;;;;13.97;69.67;101626.06;5031817;28;10091;-66
2022/06/05 05:34:18;;;;;;;;;15.00;11.50;;;;;13.93;69.42;101622.06;5035959;28;9737;-66
2022/06/05 05:36:45;;;;;;;;;12.00;11.50;;;;;13.97;69.68;101619.81;5031395;28;10617;-66
2022/06/05 05:42:08;;;;;;;;;14.25;11.25;;;;;14.00;69.47;101628.38;5024596;28;9949;-66
2022/06/05 05:44:44;;;;;;;;;14.75;14.75;;;;;14.07;69.27;101626.56;5053228;28;10024;-66
2022/06/05 05:47:13;;;;;;;;;16.00;14.00;;;;;14.09;68.90;101623.63;5050530;28;9842;-66
2022/06/05 05:49:40;;;;;;;;;16.25;13.00;;;;;14.07;68.99;101623.00;5042719;28;10029;-65
2022/06/05 05:52:08;;;;;;;;;15.50;13.75;;;;;14.07;69.46;101625.72;5031306;28;9893;-66
2022/06/05 05:54:35;;;;;;;;;15.75;12.75;;;;;14.09;69.69;101624.47;5037496;28;9819;-66
2022/06/05 05:57:03;;;;;;;;;22.25;16.50;;;;;14.16;69.67;101627.22;5038581;28;9750;-67
2022/06/05 05:59:29;;;;;;;;;13.50;12.00;;;;;14.25;69.41;101622.50;5036048;28;9933;-67
2022/06/05 06:01:56;;;;;;;;;16.00;14.25;;;;;14.27;69.27;101623.97;5049178;28;10005;-67
2022/06/05 06:04:22;;;;;;;;;15.25;13.25;;;;;14.30;68.73;101630.84;5044680;28;10548;-66
2022/06/05 06:06:49;;;;;;;;;14.75;12.50;;;;;14.27;68.67;101613.13;5030756;28;9938;-67
2022/06/05 06:09:17;;;;;;;;;16.00;12.75;;;;;14.24;68.97;101623.53;5035303;28;9741;-65
2022/06/05 06:11:44;;;;;;;;;18.00;15.00;;;;;14.22;69.12;101620.16;5050004;28;9678;-66
2022/06/05 06:14:10;;;;;;;;;15.75;15.25;;;;;14.22;68.94;101612.91;5046522;28;9671;-67
2022/06/05 06:16:37;;;;;;;;;15.50;15.00;;;;;14.20;68.99;101611.44;5029500;28;9602;-68
2022/06/05 06:19:04;;;;;;;;;16.50;12.50;;;;;14.22;69.32;101610.19;5033388;28;9892;-65
2022/06/05 06:21:32;;;;;;;;;16.25;13.50;;;;;14.20;69.47;101606.84;5050390;28;10448;-65
2022/06/05 06:24:06;;;;;;;;;14.00;14.00;;;;;14.20;69.85;101608.72;5048456;28;9789;-65
2022/06/05 06:26:32;;;;;;;;;16.75;14.25;;;;;14.24;69.71;101610.00;5036877;28;9859;-65
2022/06/05 06:28:59;;;;;;;;;10.75;10.75;;;;;14.23;70.21;101611.88;5031859;28;10557;-65
2022/06/05 06:31:25;;;;;;;;;10.75;10.75;;;;;14.25;70.26;101615.19;5030567;28;9829;-65
2022/06/05 06:33:52;;;;;;;;;18.25;13.75;;;;;14.28;70.18;101606.69;5035759;28;9758;-66
2022/06/05 06:36:19;;;;;;;;;16.00;13.00;;;;;14.28;70.13;101606.69;5049817;28;9826;-65
2022/06/05 06:39:06;;;;;;;;;16.50;12.75;;;;;14.29;70.25;101608.34;5048452;28;9875;-65
2022/06/05 06:41:33;;;;;;;;;12.00;10.25;;;;;14.30;70.86;101612.75;5050429;28;10612;-64
2022/06/05 06:44:01;;;;;;;;;18.75;14.00;;;;;14.37;70.97;101609.22;5047868;28;10019;-67
2022/06/05 06:46:28;;;;;;;;;16.00;15.50;;;;;14.39;70.88;101599.88;5030381;28;9916;-64
2022/06/05 06:48:54;;;;;;;;;19.50;17.50;;;;;14.41;70.19;101597.78;5045960;28;9943;-66
2022/06/05 06:51:21;;;;;;;;;14.75;13.50;;;;;14.43;70.65;101603.03;5030143;28;10003;-66
2022/06/05 06:53:48;;;;;;;;;16.25;15.00;;;;;14.43;70.16;101593.00;5030632;28;9883;-65
2022/06/05 06:56:24;;;;;;;;;16.00;14.00;;;;;14.42;70.31;101582.38;5049426;28;9991;-66
2022/06/05 06:58:54;;;;;;;;;14.25;14.25;;;;;14.44;70.64;101589.25;5047650;28;9815;-66
2022/06/05 07:01:21;;;;;;;;;23.75;18.00;;;;;14.43;69.78;101571.34;5049335;28;9836;-66
2022/06/05 07:03:48;;;;;;;;;14.00;11.25;;;;;14.41;70.44;101572.56;5042941;28;10008;-66
2022/06/05 07:06:15;;;;;;;;;19.50;16.50;;;;;14.42;70.15;101571.53;5030445;28;10527;-65
2022/06/05 07:08:43;;;;;;;;;16.50;15.00;;;;;14.45;70.05;101563.00;5034548;28;9828;-66
2022/06/05 07:11:12;;;;;;;;;19.25;19.25;;;;;14.48;69.92;101555.31;5047331;28;9827;-63
2022/06/05 07:13:45;;;;;;;;;17.50;16.00;;;;;14.50;70.15;101558.72;5050577;28;10613;-63
2022/06/05 07:16:12;;;;;;;;;18.25;17.00;;;;;14.52;70.16;101542.22;5034048;28;9937;-66
2022/06/05 07:18:39;;;;;;;;;19.25;18.75;;;;;14.56;70.16;101538.06;5033731;28;9704;-66
2022/06/05 07:21:14;;;;;;;;;21.50;18.50;;;;;14.60;69.61;101523.09;5051424;28;9994;-66
2022/06/05 07:23:41;;;;;;;;;12.50;11.50;;;;;14.65;69.63;101526.00;5050205;28;9843;-64
2022/06/05 07:26:11;;;;;;;;;16.00;14.50;;;;;14.70;69.61;101522.69;5029737;28;9844;-65
2022/06/05 07:28:38;;;;;;;;;11.75;9.75;;;;;14.77;69.47;101513.53;5033665;28;10406;-65
2022/06/05 07:31:06;;;;;;;;;14.25;11.25;;;;;14.88;69.41;101511.28;5034205;28;9593;-66
2022/06/05 07:33:34;;;;;;;;;18.25;16.00;;;;;14.91;68.90;101517.13;5033648;28;9795;-66
2022/06/05 07:36:04;;;;;;;;;16.75;11.25;;;;;14.96;68.44;101516.50;5051938;28;9854;-65
2022/06/05 07:38:32;;;;;;;;;15.00;13.00;;;;;14.96;68.19;101508.34;5036389;28;9812;-66
2022/06/05 07:41:00;;;;;;;;;17.75;14.00;;;;;14.99;68.20;101511.50;5051361;28;9821;-65
2022/06/05 07:43:26;;;;;;;;;16.00;13.75;;;;;15.04;68.39;101511.69;5052901;28;9747;-66
2022/06/05 07:45:53;;;;;;;;;18.50;15.50;;;;;15.07;68.13;101502.31;5033954;28;10161;-65
2022/06/05 07:48:19;;;;;;;;;10.75;10.25;;;;;15.15;68.25;101504.84;5033312;28;9694;-64
2022/06/05 07:56:17;;;;;;;;;16.00;14.25;;;;;15.47;67.50;101494.16;5033386;28;9660;-64
2022/06/05 07:58:44;;;;;;;;;16.25;13.25;;;;;15.54;67.64;101484.13;5032889;28;9641;-65
2022/06/05 08:01:10;;;;;;;;;15.75;12.50;;;;;15.63;67.60;101473.88;5052816;28;9557;-64
2022/06/05 08:03:37;;;;;;;;;15.50;15.50;;;;;15.69;67.68;101471.19;5052550;28;9523;-64
2022/06/05 08:06:04;;;;;;;;;14.25;14.00;;;;;15.76;67.18;101466.59;5033622;28;9693;-65
2022/06/05 08:08:30;;;;;;;;;16.75;15.50;;;;;15.89;67.16;101470.31;5033048;28;9439;-65
2022/06/05 08:11:06;;;;;;;;;16.00;15.33;;;;;15.97;66.72;101473.63;5050941;28;9539;-65
2022/06/05 08:13:37;;;;;;;;;24.75;20.00;;;;;16.01;66.43;101444.16;5052352;28;9430;-65
2022/06/05 08:16:04;;;;;;;;;18.25;15.50;;;;;16.03;65.98;101450.19;5033304;28;9578;-65
2022/06/05 08:18:31;;;;;;;;;18.00;15.00;;;;;16.07;65.98;101449.53;5032650;28;9502;-65
2022/06/05 08:20:58;;;;;;;;;19.50;16.50;;;;;16.13;66.23;101445.16;5033964;28;9764;-65
2022/06/05 08:23:24;;;;;;;;;23.25;18.25;;;;;16.18;65.58;101445.31;5044339;28;9442;-65
2022/06/05 08:25:52;;;;;;;;;16.25;15.00;;;;;16.19;65.53;101440.72;5049533;28;9635;-65
2022/06/05 08:28:18;;;;;;;;;20.00;16.25;;;;;16.22;65.69;101443.00;5051785;28;9455;-65
2022/06/05 08:30:52;;;;;;;;;16.00;14.75;;;;;16.27;65.91;101443.19;5050809;28;9389;-65
2022/06/05 08:33:19;;;;;;;;;23.00;14.50;;;;;16.28;65.73;101437.53;5051539;28;9397;-65
2022/06/05 08:35:49;;;;;;;;;18.67;15.67;;;;;16.30;65.75;101430.00;5050765;28;9427;-65
2022/06/05 08:41:28;;;;;;;;;17.00;14.00;;;;;16.37;65.45;101431.84;5050791;28;9370;-64
2022/06/05 08:43:55;;;;;;;;;17.00;10.33;;;;;16.45;65.56;101416.13;5050063;28;9448;-64
2022/06/05 08:46:27;;;;;;;;;14.00;14.00;;;;;16.63;65.61;101409.09;5032363;28;9474;-64
2022/06/05 08:49:03;;;;;;;;;16.00;15.67;;;;;16.78;65.24;101418.63;5033181;28;10152;-64
2022/06/05 08:51:44;;;;;;;;;15.75;13.00;;;;;16.86;64.58;101413.97;5051402;28;9372;-64
2022/06/05 08:54:32;;;;;;;;;16.00;12.33;;;;;16.90;64.08;101396.16;5047913;28;9448;-64
2022/06/05 08:57:04;;;;;;;;;16.33;12.00;;;;;16.98;63.65;101398.59;5047133;28;9302;-64
2022/06/05 09:00:04;;;;;;;;;17.33;12.67;;;;;17.03;63.76;101393.31;5038105;28;9354;-64
2022/06/05 09:02:42;;;;;;;;;15.33;15.00;;;;;17.03;63.33;101390.59;5051237;28;9427;-65
2022/06/05 09:05:24;;;;;;;;;19.67;17.00;;;;;17.09;63.09;101397.84;5039868;28;9362;-65
2022/06/05 09:07:56;;;;;;;;;16.67;14.67;;;;;17.12;63.63;101391.13;5031822;28;10079;-65
2022/06/05 09:10:33;;;;;;;;;13.33;13.00;;;;;17.14;63.32;101381.72;5045253;28;9216;-65
2022/06/05 09:13:01;;;;;;;;;26.00;21.67;;;;;17.20;62.97;101380.78;5049952;28;9226;-65
2022/06/05 09:15:33;;;;;;;;;21.25;21.25;;;;;17.18;62.86;101379.38;5036888;28;9304;-65
2022/06/05 09:18:01;;;;;;;;;22.33;21.00;;;;;17.12;62.90;101378.38;5031323;28;9541;-65
2022/06/05 09:20:49;;;;;;;;;19.33;19.33;;;;;17.04;63.29;101386.81;5045508;28;9363;-65
2022/06/05 09:23:24;;;;;;;;;25.00;19.33;;;;;17.03;63.81;101383.25;5044168;28;9454;-64
2022/06/05 09:26:00;;;;;;;;;18.67;17.33;;;;;17.03;63.38;101382.44;5034012;28;9297;-65
2022/06/05 09:28:50;;;;;;;;;23.00;20.25;;;;;17.07;63.48;101385.53;5031229;28;9437;-65
2022/06/05 09:31:29;;;;;;;;;22.00;19.33;;;;;17.10;64.02;101372.34;5050359;28;9543;-65
2022/06/05 09:33:59;;;;;;;;;22.00;21.50;;;;;17.10;63.76;101360.63;5049595;28;9379;-66
2022/06/05 09:36:30;;;;;;;;;22.33;21.00;;;;;17.11;64.25;101363.09;5050725;28;9372;-66
2022/06/05 09:39:36;;;;;;;;;23.67;17.67;;;;;17.18;64.38;101366.59;5048867;28;9367;-66
2022/06/05 09:42:19;;;;;;;;;22.33;16.33;;;;;17.21;64.37;101374.28;5050793;28;9419;-66
2022/06/05 09:45:00;;;;;;;;;21.33;17.67;;;;;17.26;64.85;101371.75;5049225;28;9227;-67
2022/06/05 09:47:33;;;;;;;;;14.33;12.67;;;;;17.39;64.87;101376.22;5050136;28;9426;-65
2022/06/05 09:50:04;;;;;;;;;23.00;21.50;;;;;17.46;64.57;101381.56;5040192;28;9353;-66
2022/06/05 09:52:31;;;;;;;;;22.67;20.33;;;;;17.57;64.31;101377.25;5031086;28;9532;-66
2022/06/05 09:55:43;;;;;;;;;16.67;16.00;;;;;17.68;64.31;101392.84;5040773;28;9286;-66
2022/06/05 09:58:51;;;;;;;;;23.00;19.50;;;;;17.79;64.07;101379.31;5008148;28;9464;-66
2022/06/05 10:01:34;;;;;;;;;24.50;22.75;;;;;17.83;63.48;101381.59;5027085;28;9474;-66
2022/06/05 10:04:04;;;;;;;;;21.67;18.00;;;;;17.82;63.87;101379.91;5033078;28;10281;-66
2022/06/05 10:06:45;;;;;;;;;12.67;11.67;;;;;17.86;63.85;101381.09;5049859;28;10147;-64
2022/06/05 10:09:15;;;;;;;;;16.67;16.00;;;;;17.88;63.82;101374.38;5045993;28;9308;-66
2022/06/05 10:11:51;;;;;;;;;22.33;17.33;;;;;17.97;63.85;101372.16;5030672;28;9337;-66
2022/06/05 10:14:28;;;;;;;;;15.33;15.33;;;;;18.04;63.37;101381.09;5035071;28;9354;-66
2022/06/05 10:17:10;;;;;;;;;27.00;25.67;;;;;18.06;63.62;101378.94;5049734;28;9325;-66
2022/06/05 10:19:59;;;;;;;;;17.67;17.00;;;;;18.09;63.62;101383.13;5041139;28;9477;-66
2022/06/05 10:22:25;;;;;;;;;15.00;14.33;;;;;18.08;63.91;101376.00;5023930;28;9238;-66
2022/06/05 10:25:14;;;;;;;;;17.67;17.00;;;;;18.11;64.06;101379.13;5037809;28;9280;-66
2022/06/05 10:27:49;;;;;;;;;19.67;19.33;;;;;18.16;63.60;101379.25;5030196;28;9377;-66
2022/06/05 10:30:18;;;;;;;;;13.00;12.33;;;;;18.14;63.69;101372.34;5035905;28;9228;-67
2022/06/05 10:32:50;;;;;;;;;18.33;14.33;;;;;18.20;63.94;101368.72;5049697;28;9133;-66
2022/06/05 10:35:24;;;;;;;;;19.67;18.33;;;;;18.23;63.88;101362.78;5048209;28;8983;-66
2022/06/05 10:38:21;;;;;;;;;18.33;18.33;;;;;18.23;63.75;101362.78;5049082;28;9128;-65
2022/06/05 10:40:53;;;;;;;;;15.67;15.67;;;;;18.24;63.76;101365.28;5046668;28;9308;-65
2022/06/05 10:43:24;;;;;;;;;21.67;18.33;;;;;18.27;63.75;101362.09;5049288;28;9158;-66
2022/06/05 10:45:58;;;;;;;;;21.00;20.00;;;;;18.27;63.90;101356.66;5048202;28;9274;-66
2022/06/05 10:48:45;;;;;;;;;20.00;19.00;;;;;18.28;63.59;101355.59;5048372;28;9257;-67
2022/06/05 10:51:27;;;;;;;;;27.00;23.75;;;;;18.31;64.09;101361.63;5026845;28;9355;-66
2022/06/05 10:54:01;;;;;;;;;25.67;21.00;;;;;18.31;64.08;101357.03;5031243;28;9428;-66
2022/06/05 10:57:33;;;;;;;;;15.67;15.33;;;;;18.34;64.27;101353.81;5049057;28;9367;-66
2022/06/05 11:00:16;;;;;;;;;14.00;14.00;;;;;18.42;64.13;101349.91;4973400;28;9087;-66
2022/06/05 11:03:13;;;;;;;;;19.00;16.33;;;;;18.49;64.51;101348.75;4968937;28;9177;-66
2022/06/05 11:06:03;;;;;;;;;16.33;14.00;;;;;18.54;64.06;101342.59;5032382;28;9140;-66
2022/06/05 11:09:13;;;;;;;;;17.33;15.33;;;;;18.53;64.26;101339.03;5048450;28;10081;-66
2022/06/05 11:15:00;;;;;;;;;19.67;17.00;;;;;18.60;64.13;101336.22;5035789;28;9219;-67
2022/06/05 11:18:02;;;;;;;;;22.00;20.67;;;;;18.63;64.25;101326.72;5047695;28;9397;-67
2022/06/05 11:20:31;;;;;;;;;16.00;16.00;;;;;18.69;64.17;101333.97;5035483;28;9365;-65
2022/06/05 11:23:06;;;;;;;;;14.00;14.00;;;;;18.71;63.92;101327.22;5029852;28;9234;-65
2022/06/05 11:25:54;;;;;;;;;15.33;15.00;;;;;18.78;64.14;101325.22;5044709;28;9021;-66
2022/06/05 11:28:47;;;;;;;;;17.33;16.33;;;;;18.81;63.79;101329.38;5049340;28;9910;-66
2022/06/05 11:31:35;;;;;;;;;16.33;15.00;;;;;18.87;63.80;101322.13;5047836;28;9223;-66
2022/06/05 11:34:23;;;;;;;;;15.67;14.67;;;;;18.93;63.77;101321.19;5047299;28;9991;-64
2022/06/05 11:36:58;;;;;;;;;17.67;17.00;;;;;18.97;63.84;101323.19;5049011;28;9059;-66
2022/06/05 11:39:56;;;;;;;;;15.33;12.67;;;;;18.99;63.89;101312.03;5031104;28;9159;-66
2022/06/05 11:42:31;;;;;;;;;15.00;14.00;;;;;19.02;63.94;101320.59;5029898;28;9846;-66
2022/06/05 11:45:04;;;;;;;;;17.67;15.00;;;;;19.07;63.60;101319.88;5030751;28;9172;-65
2022/06/05 11:47:43;;;;;;;;;20.00;18.00;;;;;19.10;63.43;101319.38;5029347;28;9246;-66
2022/06/05 11:50:31;;;;;;;;;17.67;15.00;;;;;19.12;63.37;101309.09;5041176;28;9293;-66
2022/06/05 11:53:24;;;;;;;;;15.67;14.00;;;;;19.12;63.17;101313.69;5048962;28;9128;-66
2022/06/05 11:56:04;;;;;;;;;18.67;18.00;;;;;19.10;63.37;101303.03;5047308;28;9000;-66
2022/06/05 11:58:44;;;;;;;;;13.33;13.33;;;;;19.08;63.35;101305.16;5048305;28;8979;-66
2022/06/05 12:01:23;;;;;;;;;19.00;16.00;;;;;19.10;63.50;101300.28;5028166;28;9015;-65
2022/06/05 12:04:15;;;;;;;;;14.00;13.00;;;;;19.10;63.60;101299.47;5025565;28;9860;-66